sensor_id;sensor_type;location;lat;lon;timestamp;pressure;altitude;pressure_sealevel;temperature;humidity
21504;BME280;10913;51.992;9.228;2023-02-17T00:03:44;100659.34;;;8.04;100.00
21504;BME280;10913;51.992;9.228;2023-02-17T00:06:13;100661.16;;;8.10;100.00
21504;BME280;10913;51.992;9.228;2023-02-17T00:08:39;100658.53;;;8.10;100.00
21504;BME280;10913;51.992;9.228;2023-02-17T00:11:05;100651.50;;;8.07;100.00
21504;BME280;10913;51.992;9.228;2023-02-17T00:13:30;100650.63;;;8.10;100.00
21504;BME280;10913;51.992;9.228;2023-02-17T00:15:56;100651.53;;;8.10;100.00
21504;BME280;10913;51.992;9.228;2023-02-17T00:18:22;100641.88;;;8.11;100.00
21504;BME280;10913;51.992;9.228;2023-02-17T00:20:47;100650.66;;;8.13;100.00
21504;BME280;10913;51.992;9.228;2023-02-17T00:23:13;100633.16;;;8.15;100.00
21504;BME280;10913;51.992;9.228;2023-02-17T00:25:39;100628.75;;;8.15;100.00
21504;BME280;10913;51.992;9.228;2023-02-17T00:28:04;100627.91;;;8.18;100.00
21504;BME280;10913;51.992;9.228;2023-02-17T00:30:30;100625.25;;;8.19;100.00
21504;BME280;10913;51.992;9.228;2023-02-17T00:32:55;100630.56;;;8.22;100.00
21504;BME280;10913;51.992;9.228;2023-02-17T00:35:21;100622.69;;;8.24;100.00
21504;BME280;10913;51.992;9.228;2023-02-17T00:37:46;100613.06;;;8.29;100.00
21504;BME280;10913;51.992;9.228;2023-02-17T00:40:12;100617.44;;;8.27;100.00
21504;BME280;10913;51.992;9.228;2023-02-17T00:42:37;100614.84;;;8.32;100.00
21504;BME280;10913;51.992;9.228;2023-02-17T00:45:03;100617.53;;;8.33;100.00
21504;BME280;10913;51.992;9.228;2023-02-17T00:47:29;100612.28;;;8.35;100.00
21504;BME280;10913;51.992;9.228;2023-02-17T00:49:54;100600.00;;;8.35;100.00
21504;BME280;10913;51.992;9.228;2023-02-17T00:52:19;100601.75;;;8.36;100.00
21504;BME280;10913;51.992;9.228;2023-02-17T00:54:45;100595.63;;;8.37;100.00
21504;BME280;10913;51.992;9.228;2023-02-17T00:57:10;100600.91;;;8.39;100.00
21504;BME280;10913;51.992;9.228;2023-02-17T00:59:35;100599.16;;;8.44;100.00
21504;BME280;10913;51.992;9.228;2023-02-17T01:02:01;100600.94;;;8.46;100.00
21504;BME280;10913;51.992;9.228;2023-02-17T01:04:26;100600.97;;;8.49;100.00
21504;BME280;10913;51.992;9.228;2023-02-17T01:06:52;100594.00;;;8.56;100.00
21504;BME280;10913;51.992;9.228;2023-02-17T01:09:17;100594.03;;;8.59;100.00
21504;BME280;10913;51.992;9.228;2023-02-17T01:11:42;100592.25;;;8.62;100.00
21504;BME280;10913;51.992;9.228;2023-02-17T01:14:11;100605.44;;;8.66;100.00
21504;BME280;10913;51.992;9.228;2023-02-17T01:16:37;100608.13;;;8.72;100.00
21504;BME280;10913;51.992;9.228;2023-02-17T01:19:07;100598.50;;;8.75;100.00
21504;BME280;10913;51.992;9.228;2023-02-17T01:21:34;100600.25;;;8.79;100.00
21504;BME280;10913;51.992;9.228;2023-02-17T01:24:02;100600.28;;;8.84;100.00
21504;BME280;10913;51.992;9.228;2023-02-17T01:26:30;100593.28;;;8.89;100.00
21504;BME280;10913;51.992;9.228;2023-02-17T01:28:56;100591.56;;;8.94;100.00
21504;BME280;10913;51.992;9.228;2023-02-17T01:31:22;100582.81;;;8.98;100.00
21504;BME280;10913;51.992;9.228;2023-02-17T01:33:48;100574.91;;;9.03;100.00
21504;BME280;10913;51.992;9.228;2023-02-17T01:36:16;100572.25;;;9.01;100.00
21504;BME280;10913;51.992;9.228;2023-02-17T01:38:42;100576.66;;;9.04;100.00
21504;BME280;10913;51.992;9.228;2023-02-17T01:41:08;100568.75;;;9.07;100.00
21504;BME280;10913;51.992;9.228;2023-02-17T01:43:34;100563.53;;;9.11;100.00
21504;BME280;10913;51.992;9.228;2023-02-17T01:46:02;100559.16;;;9.15;100.00
21504;BME280;10913;51.992;9.228;2023-02-17T01:48:30;100567.94;;;9.15;100.00
21504;BME280;10913;51.992;9.228;2023-02-17T01:51:04;100553.00;;;9.17;100.00
21504;BME280;10913;51.992;9.228;2023-02-17T01:53:43;100548.59;;;9.13;100.00
21504;BME280;10913;51.992;9.228;2023-02-17T01:56:11;100540.69;;;9.16;100.00
21504;BME280;10913;51.992;9.228;2023-02-17T01:58:39;100540.69;;;9.16;100.00
21504;BME280;10913;51.992;9.228;2023-02-17T02:01:07;100535.41;;;9.19;100.00
21504;BME280;10913;51.992;9.228;2023-02-17T02:03:35;100530.16;;;9.22;100.00
21504;BME280;10913;51.992;9.228;2023-02-17T02:06:05;100532.78;;;9.19;100.00
21504;BME280;10913;51.992;9.228;2023-02-17T02:08:37;100527.53;;;9.25;100.00
21504;BME280;10913;51.992;9.228;2023-02-17T02:11:06;100533.69;;;9.27;100.00
21504;BME280;10913;51.992;9.228;2023-02-17T02:13:32;100519.63;;;9.31;100.00
21504;BME280;10913;51.992;9.228;2023-02-17T02:16:12;100518.78;;;9.34;100.00
21504;BME280;10913;51.992;9.228;2023-02-17T02:20:02;100511.72;;;9.27;100.00
21504;BME280;10913;51.992;9.228;2023-02-17T02:33:47;100493.28;;;9.38;100.00
21504;BME280;10913;51.992;9.228;2023-02-17T02:36:33;100487.16;;;9.39;100.00
21504;BME280;10913;51.992;9.228;2023-02-17T02:39:10;100489.75;;;9.42;100.00
21504;BME280;10913;51.992;9.228;2023-02-17T02:41:43;100477.44;;;9.41;100.00
21504;BME280;10913;51.992;9.228;2023-02-17T02:44:12;100480.97;;;9.41;100.00
21504;BME280;10913;51.992;9.228;2023-02-17T02:46:39;100478.31;;;9.41;100.00
21504;BME280;10913;51.992;9.228;2023-02-17T02:49:05;100488.88;;;9.44;100.00
21504;BME280;10913;51.992;9.228;2023-02-17T02:51:48;100481.88;;;9.49;100.00
21504;BME280;10913;51.992;9.228;2023-02-17T02:54:45;100487.13;;;9.49;100.00
21504;BME280;10913;51.992;9.228;2023-02-17T03:02:50;100477.47;;;9.53;100.00
21504;BME280;10913;51.992;9.228;2023-02-17T03:05:35;100481.00;;;9.53;100.00
21504;BME280;10913;51.992;9.228;2023-02-17T03:08:27;100468.69;;;9.54;100.00
21504;BME280;10913;51.992;9.228;2023-02-17T03:10:56;100468.69;;;9.51;100.00
21504;BME280;10913;51.992;9.228;2023-02-17T03:13:21;100472.19;;;9.53;100.00
21504;BME280;10913;51.992;9.228;2023-02-17T03:15:47;100465.16;;;9.55;100.00
21504;BME280;10913;51.992;9.228;2023-02-17T03:18:13;100469.56;;;9.56;100.00
21504;BME280;10913;51.992;9.228;2023-02-17T03:20:44;100462.53;;;9.58;100.00
21504;BME280;10913;51.992;9.228;2023-02-17T03:23:10;100459.03;;;9.57;100.00
21504;BME280;10913;51.992;9.228;2023-02-17T03:25:35;100452.88;;;9.55;100.00
21504;BME280;10913;51.992;9.228;2023-02-17T03:28:01;100447.59;;;9.57;100.00
21504;BME280;10913;51.992;9.228;2023-02-17T03:30:26;100444.94;;;9.60;100.00
21504;BME280;10913;51.992;9.228;2023-02-17T03:32:52;100428.22;;;9.61;100.00
21504;BME280;10913;51.992;9.228;2023-02-17T03:35:18;100421.19;;;9.63;100.00
21504;BME280;10913;51.992;9.228;2023-02-17T03:37:43;100425.59;;;9.65;100.00
21504;BME280;10913;51.992;9.228;2023-02-17T03:40:09;100421.19;;;9.69;100.00
21504;BME280;10913;51.992;9.228;2023-02-17T03:42:34;100409.75;;;9.72;100.00
21504;BME280;10913;51.992;9.228;2023-02-17T03:45:00;100412.41;;;9.75;100.00
21504;BME280;10913;51.992;9.228;2023-02-17T03:47:25;100401.84;;;9.76;100.00
21504;BME280;10913;51.992;9.228;2023-02-17T03:49:51;100415.91;;;9.75;100.00
21504;BME280;10913;51.992;9.228;2023-02-17T03:52:17;100414.16;;;9.71;100.00
21504;BME280;10913;51.992;9.228;2023-02-17T03:54:43;100429.09;;;9.74;100.00
21504;BME280;10913;51.992;9.228;2023-02-17T03:57:08;100424.72;;;9.77;100.00
21504;BME280;10913;51.992;9.228;2023-02-17T03:59:33;100419.41;;;9.80;100.00
21504;BME280;10913;51.992;9.228;2023-02-17T04:01:59;100416.75;;;9.80;100.00
21504;BME280;10913;51.992;9.228;2023-02-17T04:04:24;100415.88;;;9.84;100.00
21504;BME280;10913;51.992;9.228;2023-02-17T04:06:49;100417.66;;;9.82;100.00
21504;BME280;10913;51.992;9.228;2023-02-17T04:09:15;100421.16;;;9.84;100.00
21504;BME280;10913;51.992;9.228;2023-02-17T04:11:41;100422.03;;;9.80;100.00
21504;BME280;10913;51.992;9.228;2023-02-17T04:14:06;100413.28;;;9.78;100.00
21504;BME280;10913;51.992;9.228;2023-02-17T04:16:31;100415.91;;;9.77;100.00
21504;BME280;10913;51.992;9.228;2023-02-17T04:18:57;100430.00;;;9.76;100.00
21504;BME280;10913;51.992;9.228;2023-02-17T04:21:22;100425.59;;;9.78;100.00
21504;BME280;10913;51.992;9.228;2023-02-17T04:23:48;100430.84;;;9.79;100.00
21504;BME280;10913;51.992;9.228;2023-02-17T04:26:13;100431.75;;;9.75;100.00
21504;BME280;10913;51.992;9.228;2023-02-17T04:28:40;100425.56;;;9.79;100.00
21504;BME280;10913;51.992;9.228;2023-02-17T04:31:05;100422.94;;;9.78;100.00
21504;BME280;10913;51.992;9.228;2023-02-17T04:33:31;100412.41;;;9.76;100.00
21504;BME280;10913;51.992;9.228;2023-02-17T04:35:56;100400.94;;;9.82;100.00
21504;BME280;10913;51.992;9.228;2023-02-17T04:38:27;100407.09;;;9.85;100.00
21504;BME280;10913;51.992;9.228;2023-02-17T04:40:54;100407.97;;;9.83;100.00
21504;BME280;10913;51.992;9.228;2023-02-17T04:43:21;100418.53;;;9.80;100.00
21504;BME280;10913;51.992;9.228;2023-02-17T04:45:47;100416.75;;;9.82;100.00
21504;BME280;10913;51.992;9.228;2023-02-17T04:48:12;100426.44;;;9.84;100.00
21504;BME280;10913;51.992;9.228;2023-02-17T04:50:37;100424.69;;;9.88;100.00
21504;BME280;10913;51.992;9.228;2023-02-17T04:53:03;100426.44;;;9.90;100.00
21504;BME280;10913;51.992;9.228;2023-02-17T04:55:29;100429.97;;;9.92;100.00
21504;BME280;10913;51.992;9.228;2023-02-17T04:57:55;100430.84;;;9.93;100.00
21504;BME280;10913;51.992;9.228;2023-02-17T05:00:20;100419.41;;;9.95;100.00
21504;BME280;10913;51.992;9.228;2023-02-17T05:02:46;100404.44;;;9.93;100.00
21504;BME280;10913;51.992;9.228;2023-02-17T05:05:11;100410.59;;;9.95;100.00
21504;BME280;10913;51.992;9.228;2023-02-17T05:07:40;100400.03;;;9.96;100.00
21504;BME280;10913;51.992;9.228;2023-02-17T05:10:06;100389.44;;;9.99;100.00
21504;BME280;10913;51.992;9.228;2023-02-17T05:12:32;100385.97;;;9.97;100.00
21504;BME280;10913;51.992;9.228;2023-02-17T05:14:57;100386.81;;;9.99;100.00
21504;BME280;10913;51.992;9.228;2023-02-17T05:17:22;100390.31;;;10.01;100.00
21504;BME280;10913;51.992;9.228;2023-02-17T05:19:48;100383.31;;;9.99;100.00
21504;BME280;10913;51.992;9.228;2023-02-17T05:22:13;100376.28;;;9.98;100.00
21504;BME280;10913;51.992;9.228;2023-02-17T05:24:38;100375.41;;;9.99;100.00
21504;BME280;10913;51.992;9.228;2023-02-17T05:27:04;100363.06;;;10.04;100.00
21504;BME280;10913;51.992;9.228;2023-02-17T05:29:29;100368.31;;;10.09;100.00
21504;BME280;10913;51.992;9.228;2023-02-17T05:31:54;100363.91;;;10.09;100.00
21504;BME280;10913;51.992;9.228;2023-02-17T05:34:20;100368.31;;;10.09;100.00
21504;BME280;10913;51.992;9.228;2023-02-17T05:36:45;100370.06;;;10.10;100.00
21504;BME280;10913;51.992;9.228;2023-02-17T05:39:10;100370.06;;;10.10;100.00
21504;BME280;10913;51.992;9.228;2023-02-17T05:41:36;100353.34;;;10.11;100.00
21504;BME280;10913;51.992;9.228;2023-02-17T05:44:02;100351.59;;;10.07;100.00
21504;BME280;10913;51.992;9.228;2023-02-17T05:46:27;100348.97;;;10.10;100.00
21504;BME280;10913;51.992;9.228;2023-02-17T05:48:53;100346.34;;;10.05;100.00
21504;BME280;10913;51.992;9.228;2023-02-17T05:51:18;100352.50;;;10.06;100.00
21504;BME280;10913;51.992;9.228;2023-02-17T05:53:43;100363.91;;;10.08;100.00
21504;BME280;10913;51.992;9.228;2023-02-17T05:56:09;100361.28;;;10.08;100.00
21504;BME280;10913;51.992;9.228;2023-02-17T05:58:34;100360.41;;;10.10;100.00
21504;BME280;10913;51.992;9.228;2023-02-17T06:01:00;100369.16;;;10.20;100.00
21504;BME280;10913;51.992;9.228;2023-02-17T06:03:25;100373.56;;;10.24;100.00
21504;BME280;10913;51.992;9.228;2023-02-17T06:05:50;100358.59;;;10.23;100.00
21504;BME280;10913;51.992;9.228;2023-02-17T06:08:16;100362.13;;;10.20;100.00
21504;BME280;10913;51.992;9.228;2023-02-17T06:10:41;100348.03;;;10.23;100.00
21504;BME280;10913;51.992;9.228;2023-02-17T06:13:06;100342.75;;;10.24;100.00
21504;BME280;10913;51.992;9.228;2023-02-17T06:15:32;100338.34;;;10.28;100.00
21504;BME280;10913;51.992;9.228;2023-02-17T06:17:58;100337.47;;;10.27;100.00
21504;BME280;10913;51.992;9.228;2023-02-17T06:20:23;100338.34;;;10.29;100.00
21504;BME280;10913;51.992;9.228;2023-02-17T06:22:49;100342.75;;;10.29;100.00
21504;BME280;10913;51.992;9.228;2023-02-17T06:25:14;100329.53;;;10.29;100.00
21504;BME280;10913;51.992;9.228;2023-02-17T06:27:40;100348.91;;;10.31;100.00
21504;BME280;10913;51.992;9.228;2023-02-17T06:30:07;100345.38;;;10.32;100.00
21504;BME280;10913;51.992;9.228;2023-02-17T06:32:32;100341.88;;;10.28;100.00
21504;BME280;10913;51.992;9.228;2023-02-17T06:34:58;100332.16;;;10.32;100.00
21504;BME280;10913;51.992;9.228;2023-02-17T06:37:24;100334.81;;;10.32;100.00
21504;BME280;10913;51.992;9.228;2023-02-17T06:39:49;100346.25;;;10.35;100.00
21504;BME280;10913;51.992;9.228;2023-02-17T06:42:15;100340.03;;;10.41;100.00
21504;BME280;10913;51.992;9.228;2023-02-17T06:44:40;100336.50;;;10.42;100.00
21504;BME280;10913;51.992;9.228;2023-02-17T06:47:05;100334.72;;;10.47;100.00
21504;BME280;10913;51.992;9.228;2023-02-17T06:49:31;100333.84;;;10.48;100.00
21504;BME280;10913;51.992;9.228;2023-02-17T06:51:56;100317.97;;;10.50;100.00
21504;BME280;10913;51.992;9.228;2023-02-17T06:54:21;100330.31;;;10.48;100.00
21504;BME280;10913;51.992;9.228;2023-02-17T06:56:47;100327.69;;;10.46;100.00
21504;BME280;10913;51.992;9.228;2023-02-17T06:59:12;100340.88;;;10.48;100.00
21504;BME280;10913;51.992;9.228;2023-02-17T07:01:37;100340.88;;;10.51;100.00
21504;BME280;10913;51.992;9.228;2023-02-17T07:04:03;100354.97;;;10.48;100.00
21504;BME280;10913;51.992;9.228;2023-02-17T07:06:28;100359.38;;;10.49;100.00
21504;BME280;10913;51.992;9.228;2023-02-17T07:08:54;100355.84;;;10.50;100.00
21504;BME280;10913;51.992;9.228;2023-02-17T07:11:19;100350.53;;;10.53;100.00
21504;BME280;10913;51.992;9.228;2023-02-17T07:13:45;100356.72;;;10.54;100.00
21504;BME280;10913;51.992;9.228;2023-02-17T07:16:12;100358.47;;;10.56;100.00
21504;BME280;10913;51.992;9.228;2023-02-17T07:18:38;100364.63;;;10.55;100.00
21504;BME280;10913;51.992;9.228;2023-02-17T07:21:05;100359.34;;;10.54;100.00
21504;BME280;10913;51.992;9.228;2023-02-17T07:23:31;100360.22;;;10.53;100.00
21504;BME280;10913;51.992;9.228;2023-02-17T07:26:04;100347.00;;;10.56;100.00
21504;BME280;10913;51.992;9.228;2023-02-17T07:28:30;100338.22;;;10.55;100.00
21504;BME280;10913;51.992;9.228;2023-02-17T07:30:55;100322.34;;;10.58;100.00
21504;BME280;10913;51.992;9.228;2023-02-17T07:33:21;100324.06;;;10.59;100.00
21504;BME280;10913;51.992;9.228;2023-02-17T07:35:49;100335.50;;;10.60;100.00
21504;BME280;10913;51.992;9.228;2023-02-17T07:38:21;100336.38;;;10.60;100.00
21504;BME280;10913;51.992;9.228;2023-02-17T07:40:50;100324.03;;;10.64;100.00
21504;BME280;10913;51.992;9.228;2023-02-17T07:43:15;100313.50;;;10.62;100.00
21504;BME280;10913;51.992;9.228;2023-02-17T07:45:41;100317.00;;;10.64;100.00
21504;BME280;10913;51.992;9.228;2023-02-17T07:48:06;100314.34;;;10.67;100.00
21504;BME280;10913;51.992;9.228;2023-02-17T07:50:31;100325.78;;;10.66;100.00
21504;BME280;10913;51.992;9.228;2023-02-17T07:52:56;100322.28;;;10.66;100.00
21504;BME280;10913;51.992;9.228;2023-02-17T07:55:22;100310.81;;;10.68;100.00
21504;BME280;10913;51.992;9.228;2023-02-17T07:57:48;100293.22;;;10.66;100.00
21504;BME280;10913;51.992;9.228;2023-02-17T08:00:14;100297.59;;;10.68;100.00
21504;BME280;10913;51.992;9.228;2023-02-17T08:02:40;100300.22;;;10.72;100.00
21504;BME280;10913;51.992;9.228;2023-02-17T08:05:05;100297.63;;;10.64;100.00
21504;BME280;10913;51.992;9.228;2023-02-17T08:07:31;100311.72;;;10.66;100.00
21504;BME280;10913;51.992;9.228;2023-02-17T08:09:57;100302.91;;;10.65;100.00
21504;BME280;10913;51.992;9.228;2023-02-17T08:12:40;100306.41;;;10.67;100.00
21504;BME280;10913;51.992;9.228;2023-02-17T08:15:44;100305.50;;;10.72;100.00
21504;BME280;10913;51.992;9.228;2023-02-17T08:18:10;100325.75;;;10.73;100.00
21504;BME280;10913;51.992;9.228;2023-02-17T08:20:35;100299.34;;;10.73;100.00
21504;BME280;10913;51.992;9.228;2023-02-17T08:23:00;100298.44;;;10.77;100.00
21504;BME280;10913;51.992;9.228;2023-02-17T08:25:30;100292.28;;;10.75;100.00
21504;BME280;10913;51.992;9.228;2023-02-17T08:27:56;100308.13;;;10.76;100.00
21504;BME280;10913;51.992;9.228;2023-02-17T08:30:21;100305.44;;;10.79;100.00
21504;BME280;10913;51.992;9.228;2023-02-17T08:32:46;100309.88;;;10.76;100.00
21504;BME280;10913;51.992;9.228;2023-02-17T08:35:12;100302.84;;;10.73;100.00
21504;BME280;10913;51.992;9.228;2023-02-17T08:37:37;100324.00;;;10.73;100.00
21504;BME280;10913;51.992;9.228;2023-02-17T08:40:03;100300.19;;;10.76;100.00
21504;BME280;10913;51.992;9.228;2023-02-17T08:42:30;100292.28;;;10.75;100.00
21504;BME280;10913;51.992;9.228;2023-02-17T08:44:56;100285.22;;;10.75;100.00
21504;BME280;10913;51.992;9.228;2023-02-17T08:47:21;100283.47;;;10.76;100.00
21504;BME280;10913;51.992;9.228;2023-02-17T08:49:47;100279.06;;;10.73;100.00
21504;BME280;10913;51.992;9.228;2023-02-17T08:52:12;100266.72;;;10.75;100.00
21504;BME280;10913;51.992;9.228;2023-02-17T08:54:37;100269.38;;;10.74;100.00
21504;BME280;10913;51.992;9.228;2023-02-17T08:57:03;100269.38;;;10.74;100.00
21504;BME280;10913;51.992;9.228;2023-02-17T08:59:29;100258.78;;;10.78;100.00
21504;BME280;10913;51.992;9.228;2023-02-17T09:01:55;100258.81;;;10.77;100.00
21504;BME280;10913;51.992;9.228;2023-02-17T09:04:21;100266.69;;;10.80;100.00
21504;BME280;10913;51.992;9.228;2023-02-17T09:06:49;100263.13;;;10.82;100.00
21504;BME280;10913;51.992;9.228;2023-02-17T09:09:17;100261.34;;;10.86;100.00
21504;BME280;10913;51.992;9.228;2023-02-17T09:11:43;100260.47;;;10.84;100.00
21504;BME280;10913;51.992;9.228;2023-02-17T09:14:09;100254.31;;;10.82;100.00
21504;BME280;10913;51.992;9.228;2023-02-17T09:16:35;100251.69;;;10.82;100.00
21504;BME280;10913;51.992;9.228;2023-02-17T09:19:00;100255.22;;;10.81;100.00
21504;BME280;10913;51.992;9.228;2023-02-17T09:21:26;100250.88;;;10.78;100.00
21504;BME280;10913;51.992;9.228;2023-02-17T09:23:51;100256.09;;;10.81;100.00
21504;BME280;10913;51.992;9.228;2023-02-17T09:26:18;100253.44;;;10.81;100.00
21504;BME280;10913;51.992;9.228;2023-02-17T09:28:44;100259.59;;;10.85;100.00
21504;BME280;10913;51.992;9.228;2023-02-17T09:31:14;100256.91;;;10.89;100.00
21504;BME280;10913;51.992;9.228;2023-02-17T09:33:40;100261.28;;;10.93;100.00
21504;BME280;10913;51.992;9.228;2023-02-17T09:36:08;100267.47;;;10.94;100.00
21504;BME280;10913;51.992;9.228;2023-02-17T09:38:36;100253.38;;;10.92;100.00
21504;BME280;10913;51.992;9.228;2023-02-17T09:41:18;100262.16;;;10.97;100.00
21504;BME280;10913;51.992;9.228;2023-02-17T09:43:45;100260.41;;;10.96;100.00
21504;BME280;10913;51.992;9.228;2023-02-17T09:46:17;100242.69;;;11.04;100.00
21504;BME280;10913;51.992;9.228;2023-02-17T09:48:48;100270.84;;;11.08;100.00
21504;BME280;10913;51.992;9.228;2023-02-17T09:51:25;100265.56;;;11.05;100.00
21504;BME280;10913;51.992;9.228;2023-02-17T09:54:09;100259.44;;;11.03;100.00
21504;BME280;10913;51.992;9.228;2023-02-17T09:56:39;100265.56;;;11.08;100.00
21504;BME280;10913;51.992;9.228;2023-02-17T09:59:27;100261.13;;;11.10;100.00
21504;BME280;10913;51.992;9.228;2023-02-17T10:01:54;100273.47;;;11.10;100.00
21504;BME280;10913;51.992;9.228;2023-02-17T10:04:33;100296.41;;;11.06;100.00
21504;BME280;10913;51.992;9.228;2023-02-17T10:07:43;100292.84;;;11.13;100.00
21504;BME280;10913;51.992;9.228;2023-02-17T10:10:15;100286.63;;;11.17;100.00
21504;BME280;10913;51.992;9.228;2023-02-17T10:12:45;100264.59;;;11.18;100.00
21504;BME280;10913;51.992;9.228;2023-02-17T10:15:20;100280.53;;;11.08;100.00
21504;BME280;10913;51.992;9.228;2023-02-17T10:20:59;100252.25;;;11.19;100.00
21504;BME280;10913;51.992;9.228;2023-02-17T10:23:27;100260.09;;;11.23;100.00
21504;BME280;10913;51.992;9.228;2023-02-17T10:36:55;100262.63;;;11.38;100.00
21504;BME280;10913;51.992;9.228;2023-02-17T10:39:46;100262.63;;;11.38;100.00
21504;BME280;10913;51.992;9.228;2023-02-17T10:42:33;100234.31;;;11.45;100.00
21504;BME280;10913;51.992;9.228;2023-02-17T10:47:49;100253.72;;;11.44;100.00
21504;BME280;10913;51.992;9.228;2023-02-17T10:50:21;100251.09;;;11.43;100.00
21504;BME280;10913;51.992;9.228;2023-02-17T10:52:48;100236.91;;;11.50;100.00
21504;BME280;10913;51.992;9.228;2023-02-17T10:55:37;100236.84;;;11.56;100.00
21504;BME280;10913;51.992;9.228;2023-02-17T10:58:10;100234.13;;;11.60;100.00
21504;BME280;10913;51.992;9.228;2023-02-17T11:00:37;100236.72;;;11.65;100.00
21504;BME280;10913;51.992;9.228;2023-02-17T11:03:03;100229.69;;;11.64;100.00
21504;BME280;10913;51.992;9.228;2023-02-17T11:05:31;100220.81;;;11.68;100.00
21504;BME280;10913;51.992;9.228;2023-02-17T11:08:01;100212.78;;;11.76;100.00
21504;BME280;10913;51.992;9.228;2023-02-17T11:10:36;100214.50;;;11.80;100.00
21504;BME280;10913;51.992;9.228;2023-02-17T11:13:03;100203.88;;;11.84;100.00
21504;BME280;10913;51.992;9.228;2023-02-17T11:15:48;100202.91;;;11.91;100.00
21504;BME280;10913;51.992;9.228;2023-02-17T11:18:20;100198.44;;;11.95;100.00
21504;BME280;10913;51.992;9.228;2023-02-17T11:21:05;100193.84;;;12.07;100.00
21504;BME280;10913;51.992;9.228;2023-02-17T11:23:32;100186.50;;;12.25;100.00
21504;BME280;10913;51.992;9.228;2023-02-17T11:26:08;100174.78;;;12.39;100.00
21504;BME280;10913;51.992;9.228;2023-02-17T11:28:34;100183.44;;;12.52;100.00
21504;BME280;10913;51.992;9.228;2023-02-17T11:31:00;100202.72;;;12.60;100.00
21504;BME280;10913;51.992;9.228;2023-02-17T11:33:38;100166.22;;;12.77;100.00
21504;BME280;10913;51.992;9.228;2023-02-17T11:36:06;100159.72;;;12.94;100.00
21504;BME280;10913;51.992;9.228;2023-02-17T11:41:05;100162.13;;;13.06;100.00
21504;BME280;10913;51.992;9.228;2023-02-17T11:43:32;100161.38;;;12.99;100.00
21504;BME280;10913;51.992;9.228;2023-02-17T11:54:45;100167.06;;;13.27;100.00
21504;BME280;10913;51.992;9.228;2023-02-17T12:00:19;100127.94;;;13.38;100.00
21504;BME280;10913;51.992;9.228;2023-02-17T12:03:04;100129.41;;;13.52;99.43
21504;BME280;10913;51.992;9.228;2023-02-17T12:11:25;100123.97;;;13.58;97.90
21504;BME280;10913;51.992;9.228;2023-02-17T12:20:02;100129.31;;;13.56;97.58
21504;BME280;10913;51.992;9.228;2023-02-17T12:25:39;100136.28;;;13.60;97.65
21504;BME280;10913;51.992;9.228;2023-02-17T12:30:50;100134.78;;;13.49;96.50
21504;BME280;10913;51.992;9.228;2023-02-17T12:33:25;100130.38;;;13.48;96.91
21504;BME280;10913;51.992;9.228;2023-02-17T12:36:08;100122.41;;;13.48;97.52
21504;BME280;10913;51.992;9.228;2023-02-17T12:38:42;100107.25;;;13.54;96.83
21504;BME280;10913;51.992;9.228;2023-02-17T12:41:20;100123.97;;;13.58;97.23
21504;BME280;10913;51.992;9.228;2023-02-17T12:44:00;100102.75;;;13.58;96.70
21504;BME280;10913;51.992;9.228;2023-02-17T12:46:35;100121.34;;;13.56;96.75
21504;BME280;10913;51.992;9.228;2023-02-17T12:49:10;100123.06;;;13.59;96.58
21504;BME280;10913;51.992;9.228;2023-02-17T12:54:37;100148.97;;;13.48;97.37
21504;BME280;10913;51.992;9.228;2023-02-17T12:59:37;100130.75;;;13.29;98.37
21504;BME280;10913;51.992;9.228;2023-02-17T13:02:05;100147.75;;;13.19;98.93
21504;BME280;10913;51.992;9.228;2023-02-17T13:04:33;100147.03;;;13.09;100.00
21504;BME280;10913;51.992;9.228;2023-02-17T13:09:48;100151.59;;;13.01;100.00
21504;BME280;10913;51.992;9.228;2023-02-17T13:14:51;100146.41;;;12.97;100.00
21504;BME280;10913;51.992;9.228;2023-02-17T13:20:26;100154.44;;;12.94;100.00
21504;BME280;10913;51.992;9.228;2023-02-17T13:23:10;100136.75;;;12.94;100.00
21504;BME280;10913;51.992;9.228;2023-02-17T13:25:36;100146.47;;;12.94;100.00
21504;BME280;10913;51.992;9.228;2023-02-17T13:28:15;100153.56;;;12.92;100.00
21504;BME280;10913;51.992;9.228;2023-02-17T13:30:43;100158.84;;;12.93;100.00
21504;BME280;10913;51.992;9.228;2023-02-17T13:35:47;100165.94;;;12.93;100.00
21504;BME280;10913;51.992;9.228;2023-02-17T13:38:27;100167.75;;;12.91;100.00
21504;BME280;10913;51.992;9.228;2023-02-17T13:40:58;100182.81;;;12.87;100.00
21504;BME280;10913;51.992;9.228;2023-02-17T13:43:24;100195.16;;;12.90;100.00
21504;BME280;10913;51.992;9.228;2023-02-17T13:46:04;100191.63;;;12.89;100.00
21504;BME280;10913;51.992;9.228;2023-02-17T13:48:32;100191.78;;;12.80;100.00
21504;BME280;10913;51.992;9.228;2023-02-17T13:51:00;100199.84;;;12.75;100.00
21504;BME280;10913;51.992;9.228;2023-02-17T13:53:30;100213.16;;;12.71;100.00
21504;BME280;10913;51.992;9.228;2023-02-17T13:55:58;100212.28;;;12.70;100.00
21504;BME280;10913;51.992;9.228;2023-02-17T13:58:40;100224.69;;;12.68;100.00
21504;BME280;10913;51.992;9.228;2023-02-17T14:01:13;100235.31;;;12.65;100.00
21504;BME280;10913;51.992;9.228;2023-02-17T14:06:05;100223.91;;;12.62;100.00
21504;BME280;10913;51.992;9.228;2023-02-17T14:08:38;100224.91;;;12.55;100.00
21504;BME280;10913;51.992;9.228;2023-02-17T14:11:13;100231.94;;;12.57;100.00
21504;BME280;10913;51.992;9.228;2023-02-17T14:13:41;100228.53;;;12.49;100.00
21504;BME280;10913;51.992;9.228;2023-02-17T14:16:33;100232.06;;;12.48;100.00
21504;BME280;10913;51.992;9.228;2023-02-17T14:19:19;100246.22;;;12.47;100.00
21504;BME280;10913;51.992;9.228;2023-02-17T14:22:05;100228.72;;;12.38;100.00